createdAt,value
2022-12-31T00:04:22.485Z,0.30
2022-12-31T00:09:25.479Z,0.50
2022-12-31T00:14:28.373Z,0.70
2022-12-31T00:19:32.609Z,0.30
2022-12-31T00:24:35.905Z,0.30
2022-12-31T00:29:38.951Z,0.40
2022-12-31T00:34:43.211Z,0.57
2022-12-31T00:39:46.171Z,0.67
2022-12-31T00:44:49.133Z,0.50
2022-12-31T00:49:53.396Z,0.30
2022-12-31T00:54:57.824Z,0.27
2022-12-31T01:00:00.751Z,0.53
2022-12-31T01:05:05.653Z,0.60
2022-12-31T01:10:09.292Z,0.53
2022-12-31T01:15:12.365Z,0.57
2022-12-31T01:20:16.760Z,0.30
2022-12-31T01:25:19.687Z,0.40
2022-12-31T01:30:22.728Z,0.20
2022-12-31T01:35:28.966Z,0.50
2022-12-31T01:40:31.813Z,0.33
2022-12-31T01:45:34.799Z,0.27
2022-12-31T01:50:40.899Z,0.60
2022-12-31T01:55:49.516Z,0.20
2022-12-31T02:00:53.640Z,0.27
2022-12-31T02:06:02.819Z,0.27
2022-12-31T02:11:28.234Z,0.27
2022-12-31T02:16:37.446Z,0.20
2022-12-31T02:21:56.933Z,0.20
2022-12-31T02:27:04.683Z,0.17
2022-12-31T02:32:12.884Z,0.27
2022-12-31T02:37:17.014Z,0.10
2022-12-31T02:42:19.932Z,0.13
2022-12-31T02:47:32.518Z,0.20
2022-12-31T02:52:44.265Z,0.20
2022-12-31T02:57:56.576Z,0.20
2022-12-31T03:03:02.757Z,0.23
2022-12-31T03:08:06.074Z,0.13
2022-12-31T03:13:09.004Z,0.13
2022-12-31T03:18:15.117Z,0.30
2022-12-31T03:23:22.568Z,0.40
2022-12-31T03:28:27.303Z,0.40
2022-12-31T03:33:34.405Z,0.50
2022-12-31T03:38:37.638Z,0.47
2022-12-31T03:43:40.589Z,0.40
2022-12-31T03:48:46.612Z,0.20
2022-12-31T03:53:49.532Z,0.20
2022-12-31T03:58:52.439Z,0.30
2022-12-31T04:03:56.844Z,0.47
2022-12-31T04:08:59.737Z,0.40
2022-12-31T04:14:02.682Z,0.30
2022-12-31T04:19:07.360Z,1.00
2022-12-31T04:24:10.298Z,0.33
2022-12-31T04:29:13.213Z,0.60
2022-12-31T04:34:17.469Z,0.40
2022-12-31T04:39:20.512Z,0.33
2022-12-31T04:44:23.452Z,0.40
2022-12-31T04:49:27.905Z,0.53
2022-12-31T04:54:30.806Z,0.80
2022-12-31T04:59:34.427Z,0.80
2022-12-31T05:04:38.715Z,0.50
2022-12-31T05:09:41.689Z,0.40
2022-12-31T05:14:44.600Z,0.47
2022-12-31T05:19:48.896Z,0.40
2022-12-31T05:24:52.344Z,0.67
2022-12-31T05:29:55.269Z,0.60
2022-12-31T05:35:00.077Z,0.43
2022-12-31T05:40:03.425Z,0.77
2022-12-31T05:45:07.650Z,0.80
2022-12-31T05:50:15.338Z,0.80
2022-12-31T05:55:18.424Z,0.90
2022-12-31T06:00:21.377Z,0.63
2022-12-31T06:05:26.458Z,0.80
2022-12-31T06:10:29.700Z,0.80
2022-12-31T06:15:32.989Z,0.60
2022-12-31T06:20:39.202Z,0.73
2022-12-31T06:25:42.114Z,0.57
2022-12-31T06:30:45.053Z,1.10
2022-12-31T06:35:49.409Z,0.67
2022-12-31T06:40:52.456Z,0.80
2022-12-31T06:45:55.370Z,0.90
2022-12-31T06:51:05.153Z,0.70
2022-12-31T06:56:09.269Z,0.70
2022-12-31T07:01:29.816Z,1.20
2022-12-31T07:06:38.827Z,0.93
2022-12-31T07:11:47.705Z,0.80
2022-12-31T07:17:00.980Z,0.87
2022-12-31T07:22:05.860Z,1.10
2022-12-31T07:27:21.885Z,0.80
2022-12-31T07:32:36.430Z,1.00
2022-12-31T07:37:50.204Z,0.80
2022-12-31T07:43:04.894Z,0.87
2022-12-31T07:48:22.078Z,0.83
2022-12-31T07:53:27.305Z,0.90
2022-12-31T07:58:50.594Z,0.90
2022-12-31T08:04:00.207Z,0.90
2022-12-31T08:09:11.208Z,0.90
2022-12-31T08:14:15.842Z,0.90
2022-12-31T08:19:25.743Z,0.80
2022-12-31T08:24:37.592Z,0.87
2022-12-31T08:29:47.607Z,0.90
2022-12-31T08:34:59.298Z,0.80
2022-12-31T08:40:16.793Z,0.73
2022-12-31T08:45:26.695Z,0.70
2022-12-31T08:50:30.537Z,0.73
2022-12-31T08:55:35.616Z,0.83
2022-12-31T09:00:39.765Z,0.90
2022-12-31T09:05:54.362Z,0.87
2022-12-31T09:11:04.484Z,0.90
2022-12-31T09:16:15.324Z,0.90
2022-12-31T09:21:20.204Z,0.70
2022-12-31T09:26:42.059Z,1.00
2022-12-31T09:31:50.578Z,0.97
2022-12-31T09:37:00.528Z,1.10
2022-12-31T09:42:42.050Z,0.80
2022-12-31T09:48:22.099Z,0.83
2022-12-31T09:53:40.228Z,0.83
2022-12-31T09:58:47.967Z,0.90
2022-12-31T10:04:11.474Z,0.90
2022-12-31T10:09:43.627Z,1.23
2022-12-31T10:15:03.288Z,0.90
2022-12-31T10:20:24.458Z,0.90
2022-12-31T10:25:49.806Z,1.17
2022-12-31T10:31:07.137Z,1.20
2022-12-31T10:36:20.000Z,1.30
2022-12-31T10:41:49.477Z,0.77
2022-12-31T10:47:25.154Z,1.20
2022-12-31T10:53:12.906Z,1.02
2022-12-31T10:59:02.880Z,1.00
2022-12-31T11:04:43.843Z,1.13
2022-12-31T11:10:17.258Z,1.00
2022-12-31T11:15:39.439Z,1.00
2022-12-31T11:20:55.896Z,1.05
2022-12-31T11:26:11.413Z,1.00
2022-12-31T11:31:28.476Z,1.00
2022-12-31T11:36:42.356Z,0.90
2022-12-31T11:41:53.060Z,1.10
2022-12-31T11:47:10.208Z,1.10
2022-12-31T11:52:49.265Z,1.03
2022-12-31T11:57:54.490Z,0.90
2022-12-31T12:03:00.886Z,1.13
2022-12-31T13:47:28.459Z,0.73
2022-12-31T13:52:39.657Z,1.00
2022-12-31T13:57:47.032Z,1.45
2022-12-31T14:03:00.142Z,1.10
2022-12-31T14:08:07.009Z,1.60
2022-12-31T14:13:34.183Z,1.30
2022-12-31T14:18:41.244Z,1.30
2022-12-31T14:23:53.868Z,1.40
2022-12-31T14:29:04.853Z,1.70
2022-12-31T14:34:15.320Z,1.47
2022-12-31T14:39:35.900Z,1.50
2022-12-31T14:44:49.902Z,1.60
2022-12-31T14:50:01.576Z,1.50
2022-12-31T14:55:24.075Z,1.40
2022-12-31T15:00:34.717Z,1.40
2022-12-31T15:05:39.228Z,2.00
2022-12-31T15:10:53.852Z,1.40
2022-12-31T15:16:19.712Z,1.30
2022-12-31T15:21:42.362Z,1.43
2022-12-31T15:26:52.031Z,1.40
2022-12-31T15:31:57.147Z,1.53
2022-12-31T15:37:02.320Z,1.60
2022-12-31T15:42:38.325Z,1.30
2022-12-31T15:47:46.812Z,1.30
2022-12-31T15:52:54.989Z,1.37
2022-12-31T15:58:02.417Z,1.30
2022-12-31T16:03:05.863Z,1.40
2022-12-31T16:08:17.604Z,1.40
2022-12-31T16:13:24.657Z,1.40
2022-12-31T16:18:38.383Z,1.20
2022-12-31T16:23:50.190Z,1.40
2022-12-31T16:28:59.842Z,1.10
2022-12-31T16:34:08.683Z,1.10
2022-12-31T16:39:33.057Z,1.40
2022-12-31T16:44:37.337Z,1.47
2022-12-31T16:49:40.961Z,1.30
2022-12-31T16:54:48.296Z,1.10
2022-12-31T16:59:55.734Z,1.30
2022-12-31T17:04:58.695Z,1.30
2022-12-31T17:10:05.720Z,1.20
2022-12-31T17:15:19.187Z,1.60
2022-12-31T17:20:26.670Z,1.40
2022-12-31T17:25:32.326Z,1.60
2022-12-31T17:30:41.561Z,1.40
2022-12-31T17:35:45.811Z,1.30
2022-12-31T17:40:52.161Z,1.03
2022-12-31T17:45:56.773Z,1.50
2022-12-31T17:51:01.150Z,1.20
2022-12-31T17:56:07.264Z,1.67
2022-12-31T18:01:14.708Z,1.30
2022-12-31T18:06:19.945Z,1.30
2022-12-31T18:11:24.911Z,1.60
2022-12-31T18:16:29.671Z,1.37
2022-12-31T18:21:34.691Z,1.27
2022-12-31T18:26:37.616Z,2.00
2022-12-31T18:31:45.075Z,1.60
2022-12-31T18:36:48.048Z,1.30
2022-12-31T18:41:51.004Z,1.47
2022-12-31T18:46:55.282Z,1.70
2022-12-31T18:51:59.178Z,1.40
2022-12-31T18:57:02.076Z,1.40
2022-12-31T19:02:12.550Z,1.20
2022-12-31T19:07:15.515Z,1.20
2022-12-31T19:12:18.463Z,1.37
2022-12-31T19:17:22.718Z,1.10
2022-12-31T19:22:25.607Z,1.27
2022-12-31T19:27:28.525Z,1.20
2022-12-31T19:32:32.826Z,1.20
2022-12-31T19:37:35.781Z,1.50
2022-12-31T19:42:38.691Z,1.23
2022-12-31T19:47:43.626Z,1.40
2022-12-31T19:52:47.762Z,1.60
2022-12-31T19:57:50.680Z,1.50
2022-12-31T20:02:55.964Z,1.40
2022-12-31T20:08:23.817Z,1.50
2022-12-31T20:13:55.392Z,1.40
2022-12-31T20:19:25.815Z,1.20
2022-12-31T20:24:58.835Z,1.27
2022-12-31T20:30:28.949Z,1.10
2022-12-31T20:35:45.355Z,1.03
2022-12-31T20:41:07.823Z,1.10
2022-12-31T20:46:26.728Z,1.13
2022-12-31T20:51:52.415Z,1.20
2022-12-31T20:57:10.827Z,1.30
2022-12-31T21:02:41.433Z,1.37
2022-12-31T21:08:20.422Z,1.10
2022-12-31T21:13:37.840Z,1.20
2022-12-31T21:18:54.640Z,1.20
2022-12-31T21:24:20.169Z,1.20
2022-12-31T21:30:01.639Z,1.60
2022-12-31T21:40:52.285Z,1.30
2022-12-31T21:46:07.737Z,1.20
2022-12-31T21:51:18.049Z,1.50
2022-12-31T21:56:33.632Z,1.37
2022-12-31T22:02:01.683Z,1.87
2022-12-31T22:07:30.074Z,1.40
2022-12-31T22:12:51.621Z,1.63
2022-12-31T22:18:06.623Z,1.50
2022-12-31T22:23:18.102Z,1.40
2022-12-31T22:28:39.727Z,1.70
2022-12-31T22:33:50.365Z,1.30
2022-12-31T22:39:06.545Z,1.37
2022-12-31T22:44:21.925Z,1.70
2022-12-31T22:49:34.150Z,1.50
2022-12-31T22:54:40.971Z,1.70
2022-12-31T22:59:53.000Z,1.30
2022-12-31T23:05:15.316Z,1.60
2022-12-31T23:10:39.928Z,4.97
2022-12-31T23:16:09.250Z,3.20
2022-12-31T23:21:34.193Z,2.17
2022-12-31T23:26:40.660Z,1.93
2022-12-31T23:31:47.020Z,2.57
2022-12-31T23:37:00.153Z,1.70
2022-12-31T23:42:04.169Z,1.80
2022-12-31T23:47:09.381Z,1.93
2022-12-31T23:52:18.545Z,2.03
2022-12-31T23:57:30.964Z,2.03
